Time;durP1;ratioP1;P1;durP2;ratioP2;P2;SDS_P1;SDS_P2;PMS_P1;PMS_P2;Temp;Humidity;BMP_temperature;BMP_pressure;BME280_temperature;BME280_humidity;BME280_pressure;Samples;Min_cycle;Max_cycle;Signal;HPM_P1;HPM_P2
2022/02/18 00:00:18;;;;;;;4.25;1.20;;;;;;;;;;6211551;23;20024;-81
2022/02/18 00:02:44;;;;;;;8.90;2.35;;;;;;;;;;6160717;23;20034;-81
2022/02/18 00:05:10;;;;;;;7.60;1.50;;;;;;;;;;6185968;22;20023;-81
2022/02/18 00:07:37;;;;;;;7.30;1.50;;;;;;;;;;6185384;22;20023;-81
2022/02/18 00:10:04;;;;;;;5.22;1.52;;;;;;;;;;6185154;22;20604;-81
2022/02/18 00:12:30;;;;;;;5.03;1.40;;;;;;;;;;6183749;22;20072;-80
2022/02/18 00:14:55;;;;;;;8.90;1.77;;;;;;;;;;6211323;22;20393;-80
2022/02/18 00:17:21;;;;;;;6.65;1.20;;;;;;;;;;6185264;22;20398;-81
2022/02/18 00:19:47;;;;;;;5.10;1.00;;;;;;;;;;6185124;23;20020;-81
2022/02/18 00:22:13;;;;;;;8.60;1.33;;;;;;;;;;6210471;23;20074;-81
2022/02/18 00:24:38;;;;;;;10.65;1.45;;;;;;;;;;6209800;22;20083;-81
2022/02/18 00:27:04;;;;;;;6.38;1.38;;;;;;;;;;6183297;22;20469;-81
2022/02/18 00:29:30;;;;;;;9.05;1.30;;;;;;;;;;6184924;22;20457;-81
2022/02/18 00:31:56;;;;;;;4.32;1.38;;;;;;;;;;6210363;22;20028;-81
2022/02/18 00:34:21;;;;;;;12.00;1.48;;;;;;;;;;6205567;22;20512;-81
2022/02/18 00:36:48;;;;;;;5.70;1.38;;;;;;;;;;6211681;23;20016;-81
2022/02/18 00:39:13;;;;;;;6.80;1.95;;;;;;;;;;6184369;23;20023;-81
2022/02/18 00:41:39;;;;;;;4.35;1.25;;;;;;;;;;6209717;22;20028;-81
2022/02/18 00:44:05;;;;;;;4.90;1.40;;;;;;;;;;6211138;22;20531;-81
2022/02/18 00:46:31;;;;;;;5.88;1.63;;;;;;;;;;6183902;22;20322;-81
2022/02/18 00:48:57;;;;;;;7.47;1.33;;;;;;;;;;6209631;22;20017;-81
2022/02/18 00:51:23;;;;;;;7.70;1.42;;;;;;;;;;6185708;22;20020;-81
2022/02/18 00:53:49;;;;;;;6.10;1.10;;;;;;;;;;6184872;23;20016;-81
2022/02/18 00:56:15;;;;;;;9.35;1.83;;;;;;;;;;6184184;23;20101;-81
2022/02/18 00:58:40;;;;;;;10.68;1.40;;;;;;;;;;6208938;22;20031;-81
2022/02/18 01:01:08;;;;;;;5.78;1.05;;;;;;;;;;6184770;22;20024;-80
2022/02/18 01:03:34;;;;;;;6.53;1.40;;;;;;;;;;6210034;22;20020;-81
2022/02/18 01:06:00;;;;;;;13.77;2.20;;;;;;;;;;6183299;22;20326;-80
2022/02/18 01:08:26;;;;;;;7.68;1.40;;;;;;;;;;6185434;22;20043;-81
2022/02/18 01:10:53;;;;;;;10.30;1.52;;;;;;;;;;6184037;22;20445;-81
2022/02/18 01:13:18;;;;;;;8.48;1.98;;;;;;;;;;6185884;23;20016;-81
2022/02/18 01:15:44;;;;;;;10.52;1.75;;;;;;;;;;6209541;23;20043;-81
2022/02/18 01:18:10;;;;;;;7.97;1.38;;;;;;;;;;6209340;22;20154;-81
2022/02/18 01:20:36;;;;;;;8.07;1.85;;;;;;;;;;6184208;22;20274;-81
2022/02/18 01:23:02;;;;;;;10.93;1.63;;;;;;;;;;6184770;22;20517;-81
2022/02/18 01:25:27;;;;;;;9.70;1.65;;;;;;;;;;6182825;22;20450;-81
2022/02/18 01:27:56;;;;;;;10.57;1.55;;;;;;;;;;6184639;22;20103;-81
2022/02/18 01:30:23;;;;;;;5.65;1.55;;;;;;;;;;6184663;22;20064;-80
2022/02/18 01:32:49;;;;;;;11.07;2.05;;;;;;;;;;6210026;23;20441;-80
2022/02/18 01:35:17;;;;;;;6.15;0.90;;;;;;;;;;6209073;23;20043;-81
2022/02/18 01:37:43;;;;;;;11.23;1.75;;;;;;;;;;6183867;22;20017;-81
2022/02/18 01:40:09;;;;;;;6.25;1.50;;;;;;;;;;6207580;22;20094;-81
2022/02/18 01:42:35;;;;;;;5.97;1.60;;;;;;;;;;6207459;22;20050;-81
2022/02/18 01:45:01;;;;;;;11.23;1.55;;;;;;;;;;6208970;22;20457;-80
2022/02/18 01:47:26;;;;;;;7.30;1.27;;;;;;;;;;6185348;22;20020;-80
2022/02/18 01:49:54;;;;;;;8.32;1.33;;;;;;;;;;6210078;22;20034;-81
2022/02/18 01:52:20;;;;;;;6.47;1.42;;;;;;;;;;6183084;22;20020;-80
2022/02/18 01:54:46;;;;;;;9.00;1.13;;;;;;;;;;6210189;23;20016;-81
2022/02/18 01:57:14;;;;;;;6.53;1.58;;;;;;;;;;6209387;22;20446;-81
2022/02/18 01:59:39;;;;;;;8.63;1.95;;;;;;;;;;6208376;22;20453;-81
2022/02/18 02:02:05;;;;;;;10.82;1.60;;;;;;;;;;6185088;22;20024;-81
2022/02/18 02:04:32;;;;;;;6.50;1.50;;;;;;;;;;6209398;22;20382;-81
2022/02/18 02:07:00;;;;;;;8.07;1.08;;;;;;;;;;6186356;22;20076;-81
2022/02/18 02:09:26;;;;;;;9.23;1.67;;;;;;;;;;6211918;22;20031;-81
2022/02/18 02:11:52;;;;;;;9.35;1.90;;;;;;;;;;6212256;22;20021;-81
2022/02/18 02:14:17;;;;;;;11.80;2.40;;;;;;;;;;6212906;23;20333;-81
2022/02/18 02:16:43;;;;;;;9.13;1.45;;;;;;;;;;6185661;22;20053;-80
2022/02/18 02:19:09;;;;;;;8.40;1.30;;;;;;;;;;6210767;22;20104;-81
2022/02/18 02:21:35;;;;;;;9.30;1.30;;;;;;;;;;6186433;22;20082;-80
2022/02/18 02:24:01;;;;;;;9.00;1.45;;;;;;;;;;6186290;22;20478;-81
2022/02/18 02:26:26;;;;;;;10.10;1.42;;;;;;;;;;6186902;22;20020;-81
2022/02/18 02:28:52;;;;;;;11.55;1.65;;;;;;;;;;6211659;22;20023;-81
2022/02/18 02:31:22;;;;;;;8.68;1.75;;;;;;;;;;6212233;23;20024;-81
2022/02/18 02:33:48;;;;;;;10.88;1.42;;;;;;;;;;6185757;23;20094;-81
2022/02/18 02:36:13;;;;;;;8.00;1.40;;;;;;;;;;6210415;22;20086;-81
2022/02/18 02:38:39;;;;;;;6.75;1.77;;;;;;;;;;6210999;22;20092;-80
2022/02/18 02:41:05;;;;;;;9.07;2.03;;;;;;;;;;6211438;22;20032;-81
2022/02/18 02:43:31;;;;;;;4.15;1.10;;;;;;;;;;6185769;22;20020;-81
2022/02/18 02:45:56;;;;;;;10.07;1.70;;;;;;;;;;6186326;22;20016;-81
2022/02/18 02:48:22;;;;;;;7.50;1.65;;;;;;;;;;6185805;22;20036;-81
2022/02/18 02:50:48;;;;;;;9.63;2.17;;;;;;;;;;6211080;23;20043;-81
2022/02/18 02:53:13;;;;;;;8.30;1.48;;;;;;;;;;6211088;22;20051;-81
2022/02/18 02:55:39;;;;;;;9.55;1.35;;;;;;;;;;6211010;22;20024;-81
2022/02/18 02:58:05;;;;;;;6.15;1.20;;;;;;;;;;6185937;22;20136;-80
2022/02/18 03:00:31;;;;;;;9.07;1.67;;;;;;;;;;6209278;22;20024;-81
2022/02/18 03:02:57;;;;;;;10.88;1.63;;;;;;;;;;6187090;22;20036;-81
2022/02/18 03:05:23;;;;;;;8.43;2.03;;;;;;;;;;6186046;22;20070;-80
2022/02/18 03:07:48;;;;;;;6.20;1.40;;;;;;;;;;6186875;23;20052;-80
2022/02/18 03:10:14;;;;;;;10.20;1.35;;;;;;;;;;6185564;22;20389;-80
2022/02/18 03:12:41;;;;;;;6.82;1.60;;;;;;;;;;6187478;22;20050;-82
2022/02/18 03:15:08;;;;;;;4.97;1.20;;;;;;;;;;6186810;22;20396;-84
2022/02/18 03:17:34;;;;;;;9.40;1.40;;;;;;;;;;6186634;22;20421;-82
2022/02/18 03:20:00;;;;;;;10.43;1.60;;;;;;;;;;6185983;22;20020;-82
2022/02/18 03:22:25;;;;;;;10.05;1.90;;;;;;;;;;6186976;22;20028;-82
2022/02/18 03:24:51;;;;;;;8.05;1.38;;;;;;;;;;6186980;22;20027;-82
2022/02/18 03:27:17;;;;;;;10.18;1.35;;;;;;;;;;6212613;23;20073;-82
2022/02/18 03:29:43;;;;;;;9.55;1.52;;;;;;;;;;6212912;22;20020;-82
2022/02/18 03:32:08;;;;;;;11.55;1.70;;;;;;;;;;6187355;22;20024;-82
2022/02/18 03:34:34;;;;;;;10.07;1.65;;;;;;;;;;6187549;22;20390;-82
2022/02/18 03:37:00;;;;;;;6.97;1.40;;;;;;;;;;6187518;22;20020;-82
2022/02/18 03:39:26;;;;;;;7.38;1.50;;;;;;;;;;6187336;22;20020;-82
2022/02/18 03:41:52;;;;;;;6.40;1.40;;;;;;;;;;6212391;22;20236;-82
2022/02/18 03:44:18;;;;;;;5.20;1.15;;;;;;;;;;6213470;22;20410;-82
2022/02/18 03:46:43;;;;;;;8.13;1.67;;;;;;;;;;6187762;22;20039;-82
2022/02/18 03:49:09;;;;;;;11.38;2.33;;;;;;;;;;6184040;22;20122;-79
2022/02/18 03:51:35;;;;;;;11.90;1.73;;;;;;;;;;6208490;22;21045;-80
2022/02/18 03:54:00;;;;;;;7.15;1.73;;;;;;;;;;6183037;22;20108;-80
2022/02/18 03:56:26;;;;;;;9.95;1.83;;;;;;;;;;6232247;22;20016;-79
2022/02/18 03:58:52;;;;;;;6.38;1.35;;;;;;;;;;6208994;22;20062;-79
2022/02/18 04:01:17;;;;;;;5.78;1.55;;;;;;;;;;6235708;22;20020;-80
2022/02/18 04:03:43;;;;;;;10.13;1.80;;;;;;;;;;6183828;22;20016;-79
2022/02/18 04:06:10;;;;;;;6.55;1.48;;;;;;;;;;6208782;22;20047;-80
2022/02/18 04:08:37;;;;;;;9.80;1.77;;;;;;;;;;6183743;22;20431;-80
2022/02/18 04:11:02;;;;;;;10.52;2.13;;;;;;;;;;6209551;22;20020;-80
2022/02/18 04:13:28;;;;;;;5.65;1.25;;;;;;;;;;6183569;22;20032;-80
2022/02/18 04:15:54;;;;;;;11.60;2.10;;;;;;;;;;6234984;22;20016;-79
2022/02/18 04:18:19;;;;;;;8.98;1.70;;;;;;;;;;6208815;23;20018;-80
2022/02/18 04:20:45;;;;;;;7.03;1.90;;;;;;;;;;6209231;23;20024;-79
2022/02/18 04:23:11;;;;;;;9.77;1.38;;;;;;;;;;6183569;22;20051;-80
2022/02/18 04:25:37;;;;;;;6.60;1.60;;;;;;;;;;6183286;22;20070;-80
2022/02/18 04:28:07;;;;;;;4.65;1.52;;;;;;;;;;6183662;22;20024;-80
2022/02/18 04:30:34;;;;;;;8.95;1.60;;;;;;;;;;6183367;22;20452;-79
2022/02/18 04:33:00;;;;;;;9.70;1.42;;;;;;;;;;6182911;22;20016;-79
2022/02/18 04:35:26;;;;;;;6.00;1.80;;;;;;;;;;6182666;22;20501;-80
2022/02/18 04:37:51;;;;;;;6.72;1.42;;;;;;;;;;6183003;22;20326;-79
2022/02/18 04:40:18;;;;;;;5.00;1.17;;;;;;;;;;6209276;23;20050;-79
2022/02/18 04:42:44;;;;;;;5.72;1.35;;;;;;;;;;6183506;22;20396;-80
2022/02/18 04:45:10;;;;;;;6.05;1.70;;;;;;;;;;6182926;22;20461;-80
2022/02/18 04:47:36;;;;;;;5.47;1.95;;;;;;;;;;6182523;22;20090;-80
2022/02/18 04:50:03;;;;;;;9.15;1.67;;;;;;;;;;6183574;22;20465;-79
2022/02/18 04:52:29;;;;;;;8.27;1.75;;;;;;;;;;6182843;22;20038;-79
2022/02/18 04:54:55;;;;;;;5.85;2.00;;;;;;;;;;6183371;22;20745;-80
2022/02/18 04:57:21;;;;;;;5.47;2.05;;;;;;;;;;6232976;22;20077;-80
2022/02/18 04:59:47;;;;;;;13.50;2.00;;;;;;;;;;6209401;22;20054;-80
2022/02/18 05:02:14;;;;;;;7.32;1.52;;;;;;;;;;6208686;22;20124;-80
2022/02/18 05:04:40;;;;;;;5.53;1.23;;;;;;;;;;6204645;22;20107;-80
2022/02/18 05:07:06;;;;;;;10.13;1.83;;;;;;;;;;6183737;22;20394;-80
2022/02/18 05:09:32;;;;;;;7.70;1.70;;;;;;;;;;6210276;22;20038;-80
2022/02/18 05:11:58;;;;;;;7.88;1.60;;;;;;;;;;6209691;22;20163;-81
2022/02/18 05:14:24;;;;;;;9.73;1.70;;;;;;;;;;6185574;22;20008;-81
2022/02/18 05:16:49;;;;;;;7.20;1.60;;;;;;;;;;6208865;23;20020;-81
2022/02/18 05:19:15;;;;;;;10.23;1.70;;;;;;;;;;6185122;23;20024;-81
2022/02/18 05:21:41;;;;;;;6.32;1.77;;;;;;;;;;6211030;22;20157;-81
2022/02/18 05:24:07;;;;;;;9.35;1.35;;;;;;;;;;6210845;22;20496;-81
2022/02/18 05:26:34;;;;;;;6.63;1.50;;;;;;;;;;6184568;22;20035;-81
2022/02/18 05:29:00;;;;;;;8.52;1.60;;;;;;;;;;6184446;22;20020;-81
2022/02/18 05:31:26;;;;;;;8.07;1.83;;;;;;;;;;6184481;22;20276;-81
2022/02/18 05:33:52;;;;;;;9.15;1.80;;;;;;;;;;6184213;22;20043;-81
2022/02/18 05:36:18;;;;;;;8.45;1.80;;;;;;;;;;6184191;23;20044;-81
2022/02/18 05:38:46;;;;;;;11.20;3.83;;;;;;;;;;6183854;22;20503;-81
2022/02/18 05:41:16;;;;;;;11.77;2.10;;;;;;;;;;6184425;22;20107;-81
2022/02/18 05:43:42;;;;;;;9.95;2.58;;;;;;;;;;6208872;22;20016;-81
2022/02/18 05:46:08;;;;;;;8.82;2.10;;;;;;;;;;6183566;22;20034;-81
2022/02/18 05:48:34;;;;;;;8.15;2.22;;;;;;;;;;6184119;22;20457;-81
2022/02/18 05:51:01;;;;;;;9.40;2.10;;;;;;;;;;6184082;22;20284;-81
2022/02/18 05:53:27;;;;;;;8.95;1.73;;;;;;;;;;6208819;23;20024;-81
2022/02/18 05:55:53;;;;;;;7.03;1.60;;;;;;;;;;6184120;22;20112;-80
2022/02/18 05:58:19;;;;;;;8.45;1.67;;;;;;;;;;6184877;23;20020;-81
2022/02/18 06:00:45;;;;;;;9.88;2.40;;;;;;;;;;6207737;22;20016;-81
2022/02/18 06:03:10;;;;;;;5.40;1.48;;;;;;;;;;6183216;22;20016;-81
2022/02/18 06:05:36;;;;;;;7.38;2.08;;;;;;;;;;6183894;22;20024;-81
2022/02/18 06:08:02;;;;;;;10.15;2.47;;;;;;;;;;6208944;22;20028;-81
2022/02/18 06:10:28;;;;;;;10.60;2.03;;;;;;;;;;6209856;22;20008;-80
2022/02/18 06:12:54;;;;;;;6.00;1.60;;;;;;;;;;6183044;22;20460;-81
2022/02/18 06:15:20;;;;;;;7.80;1.65;;;;;;;;;;6210225;23;20096;-81
2022/02/18 06:17:46;;;;;;;7.20;1.80;;;;;;;;;;6182617;23;20050;-80
2022/02/18 06:20:12;;;;;;;14.10;3.22;;;;;;;;;;6182154;22;20020;-81
2022/02/18 06:22:38;;;;;;;7.60;2.10;;;;;;;;;;6181942;22;20008;-81
2022/02/18 06:25:09;;;;;;;11.80;2.47;;;;;;;;;;6207585;22;20016;-81
2022/02/18 06:27:35;;;;;;;4.82;2.00;;;;;;;;;;6207500;22;20012;-81
2022/02/18 06:30:01;;;;;;;11.18;1.98;;;;;;;;;;6183632;22;20046;-80
2022/02/18 06:32:27;;;;;;;8.50;2.40;;;;;;;;;;6182683;22;20020;-81
2022/02/18 06:34:54;;;;;;;7.20;2.55;;;;;;;;;;6207390;22;20070;-81
2022/02/18 06:37:20;;;;;;;13.13;1.92;;;;;;;;;;6181843;23;20090;-81
2022/02/18 06:39:46;;;;;;;7.53;2.10;;;;;;;;;;6206887;22;20020;-80
2022/02/18 06:42:11;;;;;;;10.23;2.50;;;;;;;;;;6182035;22;20071;-81
2022/02/18 06:44:37;;;;;;;8.20;3.05;;;;;;;;;;6207061;22;20051;-80
2022/02/18 06:47:03;;;;;;;6.38;2.70;;;;;;;;;;6206634;22;20034;-81
2022/02/18 06:49:29;;;;;;;7.72;2.47;;;;;;;;;;6180132;22;20020;-80
2022/02/18 06:51:55;;;;;;;7.40;2.38;;;;;;;;;;6182695;22;20096;-81
2022/02/18 06:54:25;;;;;;;10.52;2.92;;;;;;;;;;6185430;23;20020;-81
2022/02/18 06:56:51;;;;;;;9.55;3.08;;;;;;;;;;6209878;23;20355;-81
2022/02/18 06:59:18;;;;;;;7.97;3.40;;;;;;;;;;6184650;23;20439;-80
2022/02/18 07:01:43;;;;;;;8.20;2.97;;;;;;;;;;6210099;22;20016;-80
2022/02/18 07:04:09;;;;;;;11.23;3.88;;;;;;;;;;6184673;22;20433;-81
2022/02/18 07:06:35;;;;;;;10.57;3.28;;;;;;;;;;6210177;22;20020;-81
2022/02/18 07:09:01;;;;;;;10.65;3.38;;;;;;;;;;6184485;22;20054;-81
2022/02/18 07:11:27;;;;;;;14.48;3.40;;;;;;;;;;6185140;22;20016;-81
2022/02/18 07:13:52;;;;;;;5.68;3.30;;;;;;;;;;6184577;22;20440;-80
2022/02/18 07:16:18;;;;;;;6.72;3.22;;;;;;;;;;6210447;23;20098;-81
2022/02/18 07:18:44;;;;;;;9.40;3.35;;;;;;;;;;6184311;22;20020;-81
2022/02/18 07:21:11;;;;;;;8.57;3.92;;;;;;;;;;6184103;22;20020;-81
2022/02/18 07:23:37;;;;;;;7.97;3.60;;;;;;;;;;6183216;22;20084;-81
2022/02/18 07:26:03;;;;;;;10.73;3.90;;;;;;;;;;6207379;22;20027;-81
2022/02/18 07:28:28;;;;;;;10.77;4.78;;;;;;;;;;6183492;22;20397;-81
2022/02/18 07:30:57;;;;;;;8.07;2.92;;;;;;;;;;6230406;22;20028;-81
2022/02/18 07:33:23;;;;;;;10.88;3.70;;;;;;;;;;6203913;22;20477;-81
2022/02/18 07:35:48;;;;;;;12.13;3.53;;;;;;;;;;6210628;23;20095;-81
2022/02/18 07:38:15;;;;;;;14.10;4.50;;;;;;;;;;6183101;22;20345;-81
2022/02/18 07:40:42;;;;;;;7.85;3.05;;;;;;;;;;6208517;22;20087;-81
2022/02/18 07:43:07;;;;;;;9.93;4.88;;;;;;;;;;6208435;22;20058;-81
2022/02/18 07:45:33;;;;;;;12.82;4.25;;;;;;;;;;6182990;22;20043;-81
2022/02/18 07:47:59;;;;;;;7.57;3.45;;;;;;;;;;6182190;22;20026;-81
2022/02/18 07:50:25;;;;;;;11.65;3.67;;;;;;;;;;6208885;22;20228;-81
2022/02/18 07:52:51;;;;;;;10.60;3.50;;;;;;;;;;6183286;23;20023;-81
2022/02/18 07:55:17;;;;;;;10.05;3.70;;;;;;;;;;6183057;23;20062;-81
2022/02/18 07:57:43;;;;;;;9.75;3.58;;;;;;;;;;6183964;22;20087;-81
2022/02/18 08:00:09;;;;;;;8.40;2.90;;;;;;;;;;6182720;22;20111;-81
2022/02/18 08:02:35;;;;;;;15.95;4.20;;;;;;;;;;6182437;22;20027;-81
2022/02/18 08:05:01;;;;;;;10.88;3.22;;;;;;;;;;6208871;22;20345;-81
2022/02/18 08:07:27;;;;;;;9.27;3.95;;;;;;;;;;6182499;22;20095;-81
2022/02/18 08:09:54;;;;;;;6.40;2.80;;;;;;;;;;6208496;22;20452;-81
2022/02/18 08:12:19;;;;;;;7.47;2.78;;;;;;;;;;6209882;23;20034;-82
2022/02/18 08:14:45;;;;;;;11.07;2.95;;;;;;;;;;6184979;22;20024;-82
2022/02/18 08:17:11;;;;;;;8.25;3.03;;;;;;;;;;6185049;22;20472;-82
2022/02/18 08:19:37;;;;;;;9.68;2.67;;;;;;;;;;6209993;22;20024;-82
2022/02/18 08:22:03;;;;;;;7.80;3.10;;;;;;;;;;6184683;22;20078;-82
2022/02/18 08:24:30;;;;;;;6.85;3.13;;;;;;;;;;6183966;22;20046;-82
2022/02/18 08:26:57;;;;;;;9.23;3.53;;;;;;;;;;6184448;22;20335;-82
2022/02/18 08:29:23;;;;;;;9.30;2.67;;;;;;;;;;6209324;22;20023;-82
2022/02/18 08:31:50;;;;;;;8.02;2.70;;;;;;;;;;6209947;23;20024;-82
2022/02/18 08:34:16;;;;;;;7.68;2.92;;;;;;;;;;6209165;22;20018;-81
2022/02/18 08:36:42;;;;;;;10.80;3.13;;;;;;;;;;6206434;22;20091;-81
2022/02/18 08:39:08;;;;;;;8.20;2.58;;;;;;;;;;6183597;22;20028;-82
2022/02/18 08:41:35;;;;;;;9.43;3.00;;;;;;;;;;6182800;22;20043;-82
2022/02/18 08:44:00;;;;;;;9.65;3.38;;;;;;;;;;6183805;22;20024;-81
2022/02/18 08:46:27;;;;;;;8.05;2.58;;;;;;;;;;6206857;22;20093;-82
2022/02/18 08:48:54;;;;;;;10.73;3.22;;;;;;;;;;6205940;22;20055;-81
2022/02/18 08:51:20;;;;;;;8.30;2.97;;;;;;;;;;6183647;23;20091;-82
2022/02/18 08:53:46;;;;;;;6.28;3.08;;;;;;;;;;6183436;22;20066;-81
2022/02/18 08:56:12;;;;;;;13.25;3.13;;;;;;;;;;6208099;22;20020;-81
2022/02/18 08:58:38;;;;;;;6.95;2.72;;;;;;;;;;6182004;22;20232;-82
2022/02/18 09:01:04;;;;;;;8.98;2.78;;;;;;;;;;6206524;22;20028;-82
2022/02/18 09:03:30;;;;;;;9.70;3.00;;;;;;;;;;6207605;22;20585;-82
2022/02/18 09:05:56;;;;;;;6.95;2.70;;;;;;;;;;6207754;22;20020;-82
2022/02/18 09:08:24;;;;;;;9.68;2.75;;;;;;;;;;6207642;23;20031;-82
2022/02/18 09:10:52;;;;;;;11.38;2.90;;;;;;;;;;6184295;23;20224;-81
2022/02/18 09:13:19;;;;;;;7.30;2.72;;;;;;;;;;6207818;22;20341;-82
2022/02/18 09:15:45;;;;;;;9.88;2.83;;;;;;;;;;6184044;22;20020;-81
2022/02/18 09:18:11;;;;;;;10.65;3.30;;;;;;;;;;6183043;22;20785;-82
2022/02/18 09:20:37;;;;;;;10.68;3.15;;;;;;;;;;6183366;22;20120;-82
2022/02/18 09:23:02;;;;;;;8.75;2.55;;;;;;;;;;6183692;22;20409;-82
2022/02/18 09:25:29;;;;;;;9.68;3.00;;;;;;;;;;6183668;22;20047;-82
2022/02/18 09:27:55;;;;;;;6.45;2.55;;;;;;;;;;6183082;22;20473;-82
2022/02/18 09:30:21;;;;;;;7.72;3.38;;;;;;;;;;6208430;22;20094;-82
2022/02/18 09:32:46;;;;;;;6.20;2.28;;;;;;;;;;6182164;22;20020;-82
2022/02/18 09:35:12;;;;;;;9.05;2.75;;;;;;;;;;6207574;22;20380;-82
2022/02/18 09:37:38;;;;;;;10.38;2.80;;;;;;;;;;6207457;22;20020;-82
2022/02/18 09:40:07;;;;;;;9.25;1.95;;;;;;;;;;6208274;22;20020;-82
2022/02/18 09:42:33;;;;;;;5.45;2.00;;;;;;;;;;6206585;22;20457;-82
2022/02/18 09:44:59;;;;;;;6.78;2.45;;;;;;;;;;6207678;22;20020;-82
2022/02/18 09:47:26;;;;;;;7.55;2.10;;;;;;;;;;6206931;22;20020;-82
2022/02/18 09:49:52;;;;;;;5.97;2.20;;;;;;;;;;6184150;23;20264;-82
2022/02/18 09:52:18;;;;;;;9.90;2.60;;;;;;;;;;6182311;23;20023;-82
2022/02/18 09:54:46;;;;;;;8.35;2.17;;;;;;;;;;6208286;22;20334;-82
2022/02/18 09:57:12;;;;;;;5.85;1.70;;;;;;;;;;6183267;22;20542;-82
2022/02/18 09:59:37;;;;;;;10.43;2.00;;;;;;;;;;6183457;22;20028;-82
2022/02/18 10:02:04;;;;;;;7.97;2.40;;;;;;;;;;6182603;22;20082;-82
2022/02/18 10:04:30;;;;;;;13.93;3.00;;;;;;;;;;6182637;22;20035;-82
2022/02/18 10:06:56;;;;;;;7.55;2.20;;;;;;;;;;6207452;22;20024;-82
2022/02/18 10:09:42;;;;;;;8.52;2.53;;;;;;;;;;6183385;23;20738;-82
2022/02/18 10:12:09;;;;;;;7.72;2.40;;;;;;;;;;6182786;22;20074;-82
2022/02/18 10:14:55;;;;;;;7.15;1.95;;;;;;;;;;6182228;22;20047;-82
2022/02/18 10:17:38;;;;;;;8.75;2.40;;;;;;;;;;6183300;23;20442;-82
2022/02/18 10:20:14;;;;;;;5.35;2.08;;;;;;;;;;6181941;22;20039;-82
2022/02/18 10:22:53;;;;;;;7.75;1.73;;;;;;;;;;6181706;22;20078;-82
2022/02/18 10:25:24;;;;;;;6.38;1.95;;;;;;;;;;6208383;23;20516;-82
2022/02/18 10:27:50;;;;;;;9.02;2.58;;;;;;;;;;6183036;23;20030;-82
2022/02/18 10:30:25;;;;;;;8.48;2.30;;;;;;;;;;6208138;22;20024;-82
2022/02/18 10:32:52;;;;;;;10.47;2.70;;;;;;;;;;6185177;23;20068;-82
2022/02/18 10:35:19;;;;;;;8.20;2.03;;;;;;;;;;6183298;22;20096;-82
2022/02/18 10:37:50;;;;;;;10.23;2.28;;;;;;;;;;6209772;22;20028;-82
2022/02/18 10:40:18;;;;;;;8.30;2.22;;;;;;;;;;6184557;22;20355;-81
2022/02/18 10:42:45;;;;;;;10.75;2.92;;;;;;;;;;6184696;22;20055;-82
2022/02/18 10:45:22;;;;;;;7.00;2.47;;;;;;;;;;6185244;22;20024;-82
2022/02/18 10:47:49;;;;;;;4.55;1.58;;;;;;;;;;6187602;22;20023;-82
2022/02/18 10:50:26;;;;;;;7.68;2.00;;;;;;;;;;6212231;22;20019;-83
2022/02/18 10:53:14;;;;;;;10.13;2.40;;;;;;;;;;6212735;23;20039;-82
2022/02/18 10:56:00;;;;;;;8.15;2.30;;;;;;;;;;6209658;22;20453;-82
2022/02/18 10:58:28;;;;;;;7.75;1.80;;;;;;;;;;6209184;22;20020;-82
2022/02/18 11:01:13;;;;;;;7.10;1.95;;;;;;;;;;6184814;23;20020;-82
2022/02/18 11:03:47;;;;;;;6.82;3.03;;;;;;;;;;6208790;22;20042;-82
2022/02/18 11:06:15;;;;;;;7.45;2.33;;;;;;;;;;6209669;22;20024;-82
2022/02/18 11:08:57;;;;;;;6.55;2.17;;;;;;;;;;6211383;22;20405;-82
2022/02/18 11:11:28;;;;;;;7.47;1.83;;;;;;;;;;6186625;23;20023;-82
2022/02/18 11:13:55;;;;;;;5.43;2.65;;;;;;;;;;6186924;22;20032;-82
2022/02/18 11:16:21;;;;;;;5.32;1.73;;;;;;;;;;6186394;23;20012;-82
2022/02/18 11:18:47;;;;;;;6.65;1.50;;;;;;;;;;6209649;22;20074;-82
2022/02/18 11:21:15;;;;;;;6.18;1.50;;;;;;;;;;6208953;22;20294;-82
2022/02/18 11:23:43;;;;;;;8.73;1.80;;;;;;;;;;6183869;22;20016;-82
2022/02/18 11:26:14;;;;;;;5.35;1.50;;;;;;;;;;6184148;22;20028;-82
2022/02/18 11:28:41;;;;;;;6.25;1.63;;;;;;;;;;6183133;22;20016;-82
2022/02/18 11:31:11;;;;;;;4.82;1.70;;;;;;;;;;6184384;22;20020;-82
2022/02/18 11:34:04;;;;;;;9.02;2.35;;;;;;;;;;6183809;22;20027;-82
2022/02/18 11:36:32;;;;;;;6.43;2.00;;;;;;;;;;6208332;22;20032;-82
2022/02/18 11:39:12;;;;;;;3.75;1.50;;;;;;;;;;6211543;22;20028;-81
2022/02/18 11:41:56;;;;;;;5.75;2.00;;;;;;;;;;6208503;22;20087;-82
2022/02/18 11:44:33;;;;;;;8.18;1.77;;;;;;;;;;6209536;23;20020;-82
2022/02/18 11:47:18;;;;;;;7.30;1.90;;;;;;;;;;6182985;22;20028;-82
2022/02/18 11:49:48;;;;;;;5.30;1.67;;;;;;;;;;6183131;22;20022;-82
2022/02/18 11:52:17;;;;;;;3.92;1.50;;;;;;;;;;6185302;22;20382;-83
2022/02/18 11:54:44;;;;;;;4.85;1.10;;;;;;;;;;6210078;22;20020;-82
2022/02/18 11:57:11;;;;;;;3.53;1.40;;;;;;;;;;6184261;22;20031;-82
2022/02/18 11:59:57;;;;;;;5.15;1.33;;;;;;;;;;6207601;22;20206;-82
2022/02/18 12:02:38;;;;;;;8.57;1.27;;;;;;;;;;6183889;23;20023;-82
2022/02/18 12:05:07;;;;;;;4.05;1.50;;;;;;;;;;6182401;22;20078;-82
2022/02/18 12:07:36;;;;;;;5.97;1.90;;;;;;;;;;6183453;22;20020;-82
2022/02/18 12:10:08;;;;;;;8.63;2.17;;;;;;;;;;6183468;22;20047;-82
2022/02/18 12:12:36;;;;;;;7.32;2.58;;;;;;;;;;6183767;22;20016;-82
2022/02/18 12:15:24;;;;;;;6.38;2.47;;;;;;;;;;6208766;22;20035;-82
2022/02/18 12:18:03;;;;;;;4.57;2.05;;;;;;;;;;6182967;23;20016;-82
2022/02/18 12:20:39;;;;;;;9.73;2.05;;;;;;;;;;6184731;22;20036;-82
2022/02/18 12:23:24;;;;;;;4.45;1.73;;;;;;;;;;6182737;22;20024;-82
2022/02/18 12:25:50;;;;;;;7.20;2.22;;;;;;;;;;6184103;23;20081;-83
2022/02/18 12:28:16;;;;;;;5.80;1.60;;;;;;;;;;6183022;22;20025;-82
2022/02/18 12:30:45;;;;;;;3.17;1.55;;;;;;;;;;6209354;22;20063;-82
2022/02/18 12:33:11;;;;;;;7.53;2.17;;;;;;;;;;6185038;22;20434;-82
2022/02/18 12:35:38;;;;;;;7.28;2.30;;;;;;;;;;6210359;22;20020;-82
2022/02/18 12:38:05;;;;;;;5.07;1.45;;;;;;;;;;6184868;22;20472;-82
2022/02/18 12:40:35;;;;;;;6.22;1.83;;;;;;;;;;6183204;22;20388;-82
2022/02/18 12:43:20;;;;;;;4.72;1.67;;;;;;;;;;6184436;22;20059;-82
2022/02/18 12:45:57;;;;;;;6.00;2.20;;;;;;;;;;6209283;22;20349;-82
2022/02/18 12:48:32;;;;;;;9.77;2.25;;;;;;;;;;6183922;23;20016;-82
2022/02/18 12:51:00;;;;;;;5.97;2.42;;;;;;;;;;6182669;22;20024;-82
2022/02/18 12:53:26;;;;;;;6.00;2.30;;;;;;;;;;6210310;22;20012;-82
2022/02/18 12:55:51;;;;;;;7.30;2.45;;;;;;;;;;6178044;23;20090;-83
2022/02/18 12:58:17;;;;;;;7.28;2.78;;;;;;;;;;6206773;22;20436;-83
2022/02/18 13:00:43;;;;;;;6.25;2.28;;;;;;;;;;6199637;22;20065;-82
2022/02/18 13:03:11;;;;;;;7.72;2.60;;;;;;;;;;6176641;22;20024;-82
2022/02/18 13:05:37;;;;;;;7.07;1.95;;;;;;;;;;6182970;23;20074;-83
2022/02/18 13:08:18;;;;;;;8.52;2.38;;;;;;;;;;6183142;22;20326;-82
2022/02/18 13:10:45;;;;;;;11.32;2.47;;;;;;;;;;6209088;22;20094;-82
2022/02/18 13:13:19;;;;;;;7.30;2.20;;;;;;;;;;6209203;22;20108;-82
2022/02/18 13:15:46;;;;;;;8.52;2.50;;;;;;;;;;6184479;22;20016;-82
2022/02/18 13:18:12;;;;;;;11.13;2.00;;;;;;;;;;6210462;22;20108;-82
2022/02/18 13:20:40;;;;;;;6.97;2.50;;;;;;;;;;6201214;22;20012;-82
2022/02/18 13:23:13;;;;;;;5.90;2.15;;;;;;;;;;6186958;22;20031;-83
2022/02/18 13:25:50;;;;;;;10.77;2.28;;;;;;;;;;6211304;22;20028;-83
2022/02/18 13:28:23;;;;;;;7.90;2.70;;;;;;;;;;6184458;22;20135;-82
2022/02/18 13:30:51;;;;;;;10.10;2.42;;;;;;;;;;6184684;22;20047;-82
2022/02/18 13:33:25;;;;;;;9.27;2.80;;;;;;;;;;6185155;22;20020;-83
2022/02/18 13:35:56;;;;;;;9.23;2.40;;;;;;;;;;6184939;23;20176;-83
2022/02/18 13:38:32;;;;;;;13.48;3.60;;;;;;;;;;6184174;23;20012;-82
2022/02/18 13:41:16;;;;;;;16.10;4.05;;;;;;;;;;6185276;22;20236;-82
2022/02/18 13:43:45;;;;;;;13.20;3.53;;;;;;;;;;6183719;22;20020;-82
2022/02/18 13:46:13;;;;;;;12.25;3.97;;;;;;;;;;6184102;22;20028;-82
2022/02/18 13:48:40;;;;;;;14.27;4.18;;;;;;;;;;6177041;22;20105;-82
2022/02/18 13:51:06;;;;;;;17.50;4.15;;;;;;;;;;6188458;22;20020;-81
2022/02/18 13:53:32;;;;;;;13.07;3.40;;;;;;;;;;6191282;22;20416;-84
2022/02/18 13:55:59;;;;;;;11.90;3.08;;;;;;;;;;6192552;22;20145;-84
2022/02/18 13:58:29;;;;;;;14.85;3.38;;;;;;;;;;6192492;23;20051;-83
2022/02/18 14:00:54;;;;;;;14.43;3.78;;;;;;;;;;6190985;23;20359;-84
2022/02/18 14:03:26;;;;;;;13.82;3.67;;;;;;;;;;6190754;23;20074;-84
2022/02/18 14:06:09;;;;;;;18.83;5.13;;;;;;;;;;6192124;23;20026;-84
2022/02/18 14:08:35;;;;;;;9.30;3.03;;;;;;;;;;6192001;22;20027;-84
2022/02/18 14:11:10;;;;;;;9.93;2.85;;;;;;;;;;6216026;22;20028;-83
2022/02/18 14:13:35;;;;;;;8.83;2.73;;;;;;;;;;6190120;22;20032;-83
2022/02/18 14:16:28;;;;;;;14.68;3.50;;;;;;;;;;6213757;22;20028;-84
2022/02/18 14:19:01;;;;;;;8.48;3.22;;;;;;;;;;6191937;23;20044;-84
2022/02/18 14:21:32;;;;;;;19.38;5.22;;;;;;;;;;6190297;22;20016;-84
2022/02/18 14:24:01;;;;;;;12.85;4.20;;;;;;;;;;6190334;22;20107;-84
2022/02/18 14:26:28;;;;;;;17.88;4.95;;;;;;;;;;6215575;22;20381;-83
2022/02/18 14:28:55;;;;;;;14.63;4.38;;;;;;;;;;6190351;23;20086;-84
2022/02/18 14:31:25;;;;;;;12.93;3.35;;;;;;;;;;6188729;23;20440;-83
2022/02/18 14:34:01;;;;;;;14.40;4.40;;;;;;;;;;6187702;22;20035;-83
2022/02/18 14:36:41;;;;;;;16.25;4.10;;;;;;;;;;6187040;22;20023;-83
2022/02/18 14:39:09;;;;;;;20.02;4.85;;;;;;;;;;6186238;22;20200;-83
2022/02/18 14:41:58;;;;;;;11.93;3.88;;;;;;;;;;6191435;22;20028;-81